Time;durP1;ratioP1;P1;durP2;ratioP2;P2;SDS_P1;SDS_P2;PMS_P1;PMS_P2;Temp;Humidity;BMP_temperature;BMP_pressure;BME280_temperature;BME280_humidity;BME280_pressure;Samples;Min_cycle;Max_cycle;Signal;HPM_P1;HPM_P2
2022/02/07 00:01:07;;;;;;;6.50;2.07;;;6.50;99.90;;;;;;5093854;28;20258;-74
2022/02/07 00:03:42;;;;;;;11.43;2.30;;;6.50;99.90;;;;;;5093777;28;20228;-75
2022/02/07 00:06:09;;;;;;;9.97;2.33;;;6.40;99.90;;;;;;5093958;28;20257;-75
2022/02/07 00:08:35;;;;;;;8.03;2.57;;;6.40;99.90;;;;;;5093517;28;20190;-75
2022/02/07 00:11:02;;;;;;;9.63;2.23;;;6.40;99.90;;;;;;5093784;28;20209;-76
2022/02/07 00:13:31;;;;;;;8.87;2.30;;;6.30;99.90;;;;;;5093615;28;20205;-75
2022/02/07 00:15:57;;;;;;;5.83;1.83;;;6.30;99.90;;;;;;5092999;28;20613;-72
2022/02/07 00:18:24;;;;;;;4.40;1.70;;;6.30;99.90;;;;;;5093866;28;20571;-75
2022/02/07 00:20:52;;;;;;;7.17;2.20;;;6.40;99.90;;;;;;5093248;28;20292;-76
2022/02/07 00:23:19;;;;;;;11.20;2.10;;;6.30;99.90;;;;;;5093747;28;20343;-76
2022/02/07 00:25:46;;;;;;;9.40;2.08;;;6.30;99.90;;;;;;5092008;28;20441;-74
2022/02/07 00:28:13;;;;;;;5.60;1.47;;;6.40;99.90;;;;;;5093999;28;20211;-74
2022/02/07 00:30:42;;;;;;;5.73;1.53;;;6.40;99.90;;;;;;5093132;28;20231;-74
2022/02/07 00:33:09;;;;;;;6.30;1.23;;;6.30;99.90;;;;;;5093422;28;20201;-74
2022/02/07 00:35:36;;;;;;;8.47;1.33;;;6.20;99.90;;;;;;5093049;28;20216;-74
2022/02/07 00:38:07;;;;;;;6.43;1.70;;;6.20;99.90;;;;;;5093476;28;20205;-75
2022/02/07 00:41:01;;;;;;;11.23;1.70;;;6.30;99.90;;;;;;5093191;28;20731;-74
2022/02/07 00:43:38;;;;;;;7.00;1.50;;;6.20;99.90;;;;;;5093005;28;20590;-76
2022/02/07 00:46:09;;;;;;;13.30;2.13;;;6.30;99.90;;;;;;5092927;28;20254;-76
2022/02/07 00:48:37;;;;;;;8.00;2.03;;;6.20;99.90;;;;;;5093377;28;20640;-74
2022/02/07 00:51:05;;;;;;;8.83;2.23;;;6.20;99.90;;;;;;5093072;28;20212;-74
2022/02/07 00:53:33;;;;;;;10.63;2.57;;;6.20;99.90;;;;;;5092825;28;20193;-74
2022/02/07 00:56:01;;;;;;;7.93;2.30;;;6.10;99.90;;;;;;5092804;28;20201;-75
2022/02/07 00:58:28;;;;;;;9.50;1.83;;;6.00;99.90;;;;;;5093291;28;20201;-75
2022/02/07 01:00:55;;;;;;;9.57;2.80;;;6.10;99.90;;;;;;5091710;28;20901;-74
2022/02/07 01:03:24;;;;;;;11.27;2.50;;;6.10;99.90;;;;;;5092829;28;20240;-75
2022/02/07 01:05:51;;;;;;;8.10;3.17;;;6.10;99.90;;;;;;5092535;28;20197;-76
2022/02/07 01:08:23;;;;;;;14.57;2.70;;;6.00;99.90;;;;;;5092861;28;20201;-75
2022/02/07 01:10:57;;;;;;;8.57;1.60;;;5.90;99.90;;;;;;5092975;28;20556;-74
2022/02/07 01:13:37;;;;;;;11.20;2.20;;;5.90;99.90;;;;;;5075830;28;20250;-77
2022/02/07 01:16:13;;;;;;;7.30;1.60;;;5.80;99.90;;;;;;5079358;28;20647;-73
2022/02/07 01:22:05;;;;;;;8.27;1.93;;;5.80;99.90;;;;;;5071025;28;20307;-77
2022/02/07 01:50:00;;;;;;;9.47;2.03;;;6.00;99.90;;;;;;5069488;28;20684;-75
2022/02/07 01:52:52;;;;;;;7.17;1.97;;;5.80;99.90;;;;;;5069888;28;20587;-75
2022/02/07 01:55:31;;;;;;;6.13;2.00;;;5.80;99.90;;;;;;5086496;28;20205;-74
2022/02/07 01:57:59;;;;;;;10.77;1.90;;;5.90;99.90;;;;;;5092117;28;20205;-75
2022/02/07 02:00:26;;;;;;;7.50;2.00;;;5.70;99.90;;;;;;5092604;28;20197;-75
2022/02/07 02:02:53;;;;;;;9.80;2.23;;;5.80;99.90;;;;;;5091885;28;20244;-76
2022/02/07 02:05:20;;;;;;;10.77;2.37;;;5.70;99.90;;;;;;5092187;28;20552;-76
2022/02/07 02:07:49;;;;;;;16.57;2.70;;;5.70;99.90;;;;;;5091865;28;20205;-74
2022/02/07 02:10:17;;;;;;;15.03;2.47;;;5.70;99.90;;;;;;5092189;28;20227;-76
2022/02/07 02:12:49;;;;;;;8.90;2.37;;;5.80;99.90;;;;;;5092529;28;20201;-74
2022/02/07 02:15:28;;;;;;;8.73;1.77;;;5.80;99.90;;;;;;5092312;28;20216;-80
2022/02/07 02:18:27;;;;;;;8.80;1.80;;;5.70;99.90;;;;;;5091454;28;20211;-74
2022/02/07 02:21:47;;;;;;;10.17;2.00;;;5.60;99.90;;;;;;5091673;28;20287;-75
2022/02/07 02:35:21;;;;;;;9.17;1.97;;;5.50;99.90;;;;;;5095760;28;20686;-75
2022/02/07 02:37:53;;;;;;;11.57;2.30;;;5.60;99.90;;;;;;5095810;28;20434;-75
2022/02/07 02:45:46;;;;;;;7.53;1.87;;;5.40;99.90;;;;;;5061424;28;20201;-77
2022/02/07 02:48:19;;;;;;;9.77;2.10;;;5.40;99.90;;;;;;5095737;28;20445;-74
2022/02/07 02:50:49;;;;;;;11.77;2.50;;;5.30;99.90;;;;;;5095865;28;20445;-74
2022/02/07 02:53:17;;;;;;;8.07;2.07;;;5.30;99.90;;;;;;5095777;28;20441;-73
2022/02/07 02:55:46;;;;;;;12.93;2.57;;;5.40;99.90;;;;;;5095436;28;20189;-74
2022/02/07 02:58:16;;;;;;;8.87;1.50;;;5.30;99.90;;;;;;5095753;28;20430;-73
2022/02/07 03:00:45;;;;;;;8.80;2.20;;;5.30;99.90;;;;;;5095514;28;20448;-75
2022/02/07 03:03:13;;;;;;;10.10;2.40;;;5.30;99.90;;;;;;5095409;28;20243;-75
2022/02/07 03:05:43;;;;;;;9.33;2.13;;;5.30;99.90;;;;;;5095113;28;20441;-78
2022/02/07 03:08:10;;;;;;;9.03;1.63;;;5.30;99.90;;;;;;5095057;28;20690;-73
2022/02/07 03:10:46;;;;;;;10.33;2.43;;;5.20;99.90;;;;;;5095106;28;20213;-75
2022/02/07 03:13:17;;;;;;;9.27;2.10;;;5.30;99.90;;;;;;5094663;28;20236;-75
2022/02/07 03:18:30;;;;;;;7.40;2.20;;;5.30;99.90;;;;;;5094683;28;20200;-76
2022/02/07 03:20:58;;;;;;;7.87;2.30;;;5.30;99.90;;;;;;5094865;28;20246;-78
2022/02/07 03:23:25;;;;;;;12.35;2.42;;;5.40;99.90;;;;;;5093865;28;20453;-74
2022/02/07 03:25:52;;;;;;;8.17;1.77;;;5.40;99.90;;;;;;5094913;28;20201;-73
2022/02/07 03:28:21;;;;;;;7.87;1.90;;;5.40;99.90;;;;;;5094710;28;20210;-75
2022/02/07 03:30:48;;;;;;;6.77;2.43;;;5.30;99.90;;;;;;5094355;28;20225;-78
2022/02/07 03:33:15;;;;;;;11.20;2.30;;;5.30;99.90;;;;;;5094474;28;20203;-74
2022/02/07 03:35:42;;;;;;;10.17;3.20;;;5.30;99.90;;;;;;5094748;28;20196;-75
2022/02/07 03:38:09;;;;;;;10.23;2.20;;;5.20;99.90;;;;;;5094343;28;20449;-73
2022/02/07 03:40:37;;;;;;;8.63;2.00;;;5.20;99.90;;;;;;5094140;28;20217;-74
2022/02/07 03:43:04;;;;;;;12.07;1.97;;;5.20;99.90;;;;;;5094316;28;20235;-76
2022/02/07 03:45:33;;;;;;;11.90;2.37;;;5.10;99.90;;;;;;5093245;28;20556;-74
2022/02/07 03:48:00;;;;;;;12.33;2.03;;;5.10;99.90;;;;;;5094131;28;20196;-75
2022/02/07 03:50:27;;;;;;;10.43;2.17;;;5.10;99.90;;;;;;5094163;28;20204;-75
2022/02/07 03:52:54;;;;;;;11.77;2.00;;;5.20;99.90;;;;;;5094455;28;20457;-74
2022/02/07 03:55:20;;;;;;;12.13;2.37;;;5.20;99.90;;;;;;5094094;28;20217;-74
2022/02/07 03:57:47;;;;;;;8.47;1.87;;;5.10;99.90;;;;;;5094222;28;20201;-73
2022/02/07 04:00:15;;;;;;;15.77;2.70;;;5.10;99.90;;;;;;5093859;28;20185;-75
2022/02/07 04:02:48;;;;;;;9.57;1.90;;;5.10;99.90;;;;;;5094316;28;20434;-74
2022/02/07 04:08:00;;;;;;;5.10;1.60;;;5.10;99.90;;;;;;5079839;28;20426;-75
2022/02/07 04:10:32;;;;;;;14.77;2.63;;;5.00;99.90;;;;;;5093460;28;20488;-75
2022/02/07 04:13:02;;;;;;;8.90;2.20;;;5.00;99.90;;;;;;5093408;28;20248;-78
2022/02/07 04:15:30;;;;;;;9.50;2.03;;;4.90;99.90;;;;;;5093589;28;20608;-75
2022/02/07 04:18:03;;;;;;;8.87;2.13;;;5.00;99.90;;;;;;5093263;28;20442;-74
2022/02/07 04:20:30;;;;;;;13.23;1.90;;;5.00;99.90;;;;;;5093427;28;20267;-76
2022/02/07 04:22:57;;;;;;;14.37;2.57;;;5.00;99.90;;;;;;5093584;28;20596;-75
2022/02/07 04:25:24;;;;;;;10.37;1.97;;;5.00;99.90;;;;;;5093275;28;20649;-75
2022/02/07 04:27:51;;;;;;;7.50;1.87;;;4.90;99.90;;;;;;5093536;28;20446;-75
2022/02/07 04:30:17;;;;;;;8.60;2.00;;;5.00;99.90;;;;;;5093345;28;20573;-74
2022/02/07 04:32:44;;;;;;;9.60;1.90;;;5.00;99.90;;;;;;5093660;28;20551;-79
2022/02/07 04:35:13;;;;;;;10.23;1.93;;;5.00;99.90;;;;;;5093675;28;20525;-73
2022/02/07 04:37:39;;;;;;;6.60;2.20;;;5.00;99.90;;;;;;5093682;28;20542;-74
2022/02/07 04:40:08;;;;;;;11.50;2.53;;;5.00;99.90;;;;;;5092843;28;20433;-75
2022/02/07 04:42:35;;;;;;;10.33;2.20;;;5.20;99.90;;;;;;5092994;28;20273;-74
2022/02/07 04:45:20;;;;;;;9.60;2.00;;;5.30;99.90;;;;;;5093426;28;20217;-73
2022/02/07 04:48:09;;;;;;;7.77;1.93;;;5.30;99.90;;;;;;5092877;28;20644;-73
2022/02/07 04:50:46;;;;;;;12.27;2.23;;;5.20;99.90;;;;;;5092960;28;20208;-74
2022/02/07 04:53:20;;;;;;;6.93;1.97;;;5.20;99.90;;;;;;5092994;28;20205;-75
2022/02/07 04:56:00;;;;;;;13.13;2.30;;;5.10;99.90;;;;;;5093482;28;20230;-72
2022/02/07 04:58:40;;;;;;;10.67;2.20;;;5.10;99.90;;;;;;5092969;28;20208;-80
2022/02/07 05:01:12;;;;;;;8.13;1.77;;;5.20;99.90;;;;;;5092853;28;20232;-74
2022/02/07 05:03:44;;;;;;;11.50;2.87;;;5.20;99.90;;;;;;5093179;28;20594;-74
2022/02/07 05:14:46;;;;;;;15.63;2.50;;;5.30;99.90;;;;;;5041053;28;20298;-77
2022/02/07 05:17:16;;;;;;;11.37;2.43;;;5.20;99.90;;;;;;5092106;28;20532;-73
2022/02/07 05:19:42;;;;;;;10.70;2.33;;;5.30;99.90;;;;;;5092291;28;20205;-76
2022/02/07 05:22:10;;;;;;;9.93;2.33;;;5.40;99.90;;;;;;5092887;28;20283;-73
2022/02/07 05:24:37;;;;;;;11.67;2.07;;;5.30;99.90;;;;;;5093081;28;20258;-75
2022/02/07 05:27:05;;;;;;;11.63;2.50;;;5.30;99.90;;;;;;5092897;28;20209;-72
2022/02/07 05:29:31;;;;;;;8.13;2.67;;;5.40;99.90;;;;;;5093212;28;20221;-73
2022/02/07 05:31:58;;;;;;;9.07;2.10;;;5.20;99.90;;;;;;5093294;28;20194;-75
2022/02/07 05:34:25;;;;;;;18.33;2.40;;;5.20;99.90;;;;;;5093308;28;20205;-73
2022/02/07 05:36:55;;;;;;;6.77;1.97;;;5.10;99.90;;;;;;5092146;28;20539;-75
2022/02/07 05:39:25;;;;;;;13.67;2.30;;;5.10;99.90;;;;;;5093044;28;20544;-73
2022/02/07 05:41:52;;;;;;;10.23;2.30;;;5.10;99.90;;;;;;5092311;28;20197;-74
2022/02/07 05:44:19;;;;;;;10.80;1.87;;;5.10;99.90;;;;;;5092493;28;20239;-73
2022/02/07 05:46:46;;;;;;;12.30;2.30;;;5.20;99.90;;;;;;5092640;28;20190;-74
2022/02/07 05:49:13;;;;;;;8.07;2.50;;;5.10;99.90;;;;;;5092559;28;20200;-73
2022/02/07 05:51:40;;;;;;;6.97;1.60;;;5.10;99.90;;;;;;5092626;28;20208;-74
2022/02/07 05:54:06;;;;;;;12.50;2.45;;;5.00;99.90;;;;;;5092273;28;20422;-74
2022/02/07 05:56:35;;;;;;;15.67;2.60;;;5.10;99.90;;;;;;5092161;28;20204;-73
2022/02/07 05:59:01;;;;;;;10.47;2.10;;;5.10;99.90;;;;;;5092152;28;20541;-77
2022/02/07 06:01:28;;;;;;;10.93;1.97;;;5.10;99.90;;;;;;5085707;28;20227;-73
2022/02/07 06:03:55;;;;;;;14.27;2.37;;;5.00;99.90;;;;;;5071725;28;20804;-72
2022/02/07 06:06:22;;;;;;;10.47;2.67;;;5.10;99.90;;;;;;5073955;28;20205;-76
2022/02/07 06:08:48;;;;;;;9.63;2.73;;;5.10;99.90;;;;;;5075505;28;20335;-76
2022/02/07 06:11:15;;;;;;;7.20;2.00;;;5.10;99.90;;;;;;5075800;28;20664;-75
2022/02/07 06:13:43;;;;;;;10.83;2.17;;;5.10;99.90;;;;;;5076008;28;20268;-73
2022/02/07 06:16:14;;;;;;;12.00;2.30;;;5.10;99.90;;;;;;5075343;28;20668;-73
2022/02/07 06:18:41;;;;;;;11.17;2.47;;;5.00;99.90;;;;;;5088247;28;20441;-74
2022/02/07 06:21:10;;;;;;;11.10;2.20;;;5.00;99.90;;;;;;5095485;28;20204;-72
2022/02/07 06:23:37;;;;;;;11.83;2.33;;;5.00;99.90;;;;;;5095781;28;20225;-76
2022/02/07 06:26:04;;;;;;;12.77;2.23;;;5.00;99.90;;;;;;5095806;28;20212;-75
2022/02/07 06:28:31;;;;;;;11.90;2.63;;;5.00;99.90;;;;;;5095973;28;20205;-72
2022/02/07 06:30:59;;;;;;;8.03;1.80;;;5.00;99.90;;;;;;5095971;28;20239;-74
2022/02/07 06:33:26;;;;;;;10.67;2.10;;;5.00;99.90;;;;;;5095887;28;20200;-77
2022/02/07 06:35:54;;;;;;;9.20;2.00;;;5.00;99.90;;;;;;5095435;28;20617;-73
2022/02/07 06:38:20;;;;;;;14.47;2.40;;;5.00;99.90;;;;;;5095348;28;20201;-74
2022/02/07 06:40:47;;;;;;;9.90;2.20;;;4.90;99.90;;;;;;5095541;28;20559;-74
2022/02/07 06:43:14;;;;;;;7.37;1.87;;;4.90;99.90;;;;;;5095536;28;20208;-76
2022/02/07 06:45:41;;;;;;;6.93;1.93;;;4.90;99.90;;;;;;5095594;28;20217;-74
2022/02/07 06:48:09;;;;;;;9.67;1.90;;;4.90;99.90;;;;;;5095177;28;20445;-75
2022/02/07 06:50:36;;;;;;;6.83;1.93;;;4.90;99.90;;;;;;5095185;28;20456;-74
2022/02/07 06:53:03;;;;;;;10.57;2.00;;;4.80;99.90;;;;;;5094869;28;20220;-79
2022/02/07 06:55:29;;;;;;;8.50;2.00;;;4.80;99.90;;;;;;5095408;28;20686;-74
2022/02/07 06:57:56;;;;;;;9.40;2.33;;;4.90;99.90;;;;;;5095618;28;20197;-74
2022/02/07 07:00:23;;;;;;;13.00;2.17;;;4.80;99.90;;;;;;5096141;28;20201;-73
2022/02/07 07:02:50;;;;;;;8.43;2.13;;;4.80;99.90;;;;;;5095414;28;20216;-75
2022/02/07 07:05:22;;;;;;;13.57;2.00;;;4.70;99.90;;;;;;5095219;28;20239;-75
2022/02/07 07:07:49;;;;;;;9.27;2.13;;;4.80;99.90;;;;;;5095428;28;20478;-76
2022/02/07 07:10:17;;;;;;;11.82;2.75;;;4.80;99.90;;;;;;5094370;28;20422;-74
2022/02/07 07:12:47;;;;;;;9.63;1.90;;;4.80;99.90;;;;;;5095287;28;20225;-75
2022/02/07 07:15:26;;;;;;;7.70;1.90;;;4.80;99.90;;;;;;5094487;28;20208;-76
2022/02/07 07:17:54;;;;;;;19.47;2.47;;;4.80;99.90;;;;;;5094262;28;20201;-73
2022/02/07 07:20:22;;;;;;;6.73;2.07;;;4.70;99.90;;;;;;5094440;28;20456;-75
2022/02/07 07:22:49;;;;;;;14.27;2.33;;;4.80;99.90;;;;;;5094737;28;20256;-75
2022/02/07 07:25:17;;;;;;;7.53;2.23;;;4.70;99.90;;;;;;5094310;28;20489;-75
2022/02/07 07:27:56;;;;;;;10.10;2.40;;;4.60;99.90;;;;;;5094773;28;20209;-75
2022/02/07 07:30:26;;;;;;;10.50;2.33;;;4.60;99.90;;;;;;5094161;28;20947;-79
2022/02/07 07:32:58;;;;;;;6.73;1.60;;;4.60;99.90;;;;;;5094434;28;20450;-74
2022/02/07 07:35:26;;;;;;;16.57;1.97;;;4.60;99.90;;;;;;5094562;28;20517;-75
2022/02/07 07:37:53;;;;;;;10.37;2.30;;;4.60;99.90;;;;;;5094189;28;20201;-74
2022/02/07 07:40:20;;;;;;;8.77;2.37;;;4.70;99.90;;;;;;5094189;28;20442;-75
2022/02/07 07:42:52;;;;;;;7.70;1.70;;;4.60;99.90;;;;;;5094252;28;20810;-75
2022/02/07 07:45:22;;;;;;;11.97;2.73;;;4.60;99.90;;;;;;5093666;28;20580;-75
2022/02/07 07:47:51;;;;;;;11.40;1.83;;;4.60;99.90;;;;;;5094324;28;20438;-75
2022/02/07 07:50:21;;;;;;;9.27;2.00;;;4.70;99.90;;;;;;5092994;28;20457;-76
2022/02/07 07:53:06;;;;;;;6.70;1.87;;;4.70;99.90;;;;;;5093206;28;20197;-74
2022/02/07 08:03:48;;;;;;;8.10;2.10;;;4.70;99.90;;;;;;5093153;28;20940;-76
2022/02/07 08:06:18;;;;;;;7.90;1.90;;;4.60;99.90;;;;;;5091730;28;20441;-74
2022/02/07 08:08:49;;;;;;;8.27;2.43;;;4.60;99.90;;;;;;5093554;28;20442;-72
2022/02/07 08:11:18;;;;;;;7.70;2.10;;;4.60;99.90;;;;;;5093103;28;20458;-74
2022/02/07 08:13:53;;;;;;;7.13;2.23;;;4.50;99.90;;;;;;5091400;28;20434;-77
2022/02/07 08:16:20;;;;;;;6.47;2.00;;;4.50;99.90;;;;;;5093376;28;20438;-74
2022/02/07 08:18:47;;;;;;;6.93;2.37;;;4.50;99.90;;;;;;5090472;28;20449;-76
2022/02/07 08:21:14;;;;;;;8.20;2.80;;;4.60;99.90;;;;;;5093807;28;20903;-83
2022/02/07 08:23:41;;;;;;;6.37;1.90;;;4.60;99.90;;;;;;5093973;28;20437;-84
2022/02/07 08:26:13;;;;;;;10.07;2.80;;;4.60;99.90;;;;;;5092787;28;20874;-84
2022/02/07 08:28:40;;;;;;;7.23;2.20;;;4.70;99.90;;;;;;5092619;28;20204;-84
2022/02/07 08:31:07;;;;;;;10.60;2.20;;;4.70;99.90;;;;;;5093003;28;20660;-81
2022/02/07 08:33:33;;;;;;;8.60;2.03;;;4.70;99.90;;;;;;5093982;28;20494;-84
2022/02/07 08:36:05;;;;;;;9.20;2.70;;;4.80;99.90;;;;;;5092357;28;20633;-82
2022/02/07 08:38:33;;;;;;;9.53;2.03;;;4.80;99.90;;;;;;5090611;28;20916;-85
2022/02/07 08:41:00;;;;;;;9.77;2.27;;;4.80;99.90;;;;;;5093546;28;20784;-82
2022/02/07 08:43:29;;;;;;;13.17;2.37;;;4.80;99.90;;;;;;5093540;28;20205;-81
2022/02/07 08:45:55;;;;;;;8.57;2.33;;;4.90;99.90;;;;;;5093527;28;20219;-84
2022/02/07 08:48:23;;;;;;;10.93;2.30;;;5.00;99.90;;;;;;5093238;28;20204;-85
2022/02/07 08:50:52;;;;;;;8.33;2.20;;;5.10;99.90;;;;;;5092203;28;20193;-82
2022/02/07 08:53:20;;;;;;;11.73;2.13;;;5.20;99.90;;;;;;5093499;28;20194;-81
2022/02/07 08:55:51;;;;;;;7.40;2.03;;;5.20;99.90;;;;;;5092072;28;20204;-84
2022/02/07 08:58:22;;;;;;;11.27;2.47;;;5.10;99.90;;;;;;5090661;28;20193;-82
2022/02/07 09:00:57;;;;;;;12.40;2.60;;;5.20;99.90;;;;;;5093434;28;20284;-86
2022/02/07 09:03:45;;;;;;;8.07;2.00;;;5.30;99.90;;;;;;5093626;28;20192;-87
2022/02/07 09:06:27;;;;;;;13.83;2.40;;;5.30;99.90;;;;;;5092648;28;20283;-83
2022/02/07 09:09:07;;;;;;;14.33;2.57;;;5.20;99.90;;;;;;5091564;28;20247;-89
2022/02/07 09:11:35;;;;;;;15.13;2.37;;;5.30;99.90;;;;;;5092468;28;20291;-82
2022/02/07 09:14:10;;;;;;;8.17;2.23;;;5.40;99.90;;;;;;5092572;28;20209;-84
2022/02/07 09:16:41;;;;;;;7.80;2.57;;;5.40;99.90;;;;;;5092555;28;20677;-82
2022/02/07 09:19:09;;;;;;;10.07;2.20;;;5.40;99.90;;;;;;5089077;28;20204;-80
2022/02/07 09:21:36;;;;;;;10.03;2.07;;;5.40;99.90;;;;;;5092620;28;20197;-83
2022/02/07 09:24:05;;;;;;;9.73;2.30;;;5.40;99.90;;;;;;5089965;28;20209;-85
2022/02/07 09:26:32;;;;;;;10.03;2.07;;;5.40;99.90;;;;;;5090633;28;20229;-86
2022/02/07 09:28:59;;;;;;;9.87;2.83;;;5.40;99.90;;;;;;5087051;28;20299;-79
2022/02/07 09:31:27;;;;;;;14.13;2.50;;;5.50;99.90;;;;;;5092645;28;20201;-83
2022/02/07 09:33:56;;;;;;;15.00;2.03;;;5.70;99.90;;;;;;5092015;28;20204;-86
2022/02/07 09:36:24;;;;;;;11.40;2.13;;;5.70;99.90;;;;;;5092266;28;20668;-86
2022/02/07 09:38:51;;;;;;;8.30;2.07;;;5.80;99.90;;;;;;5093299;28;20194;-83
2022/02/07 09:41:21;;;;;;;9.52;2.40;;;5.90;99.90;;;;;;5096288;28;20437;-82
2022/02/07 09:43:49;;;;;;;8.90;2.37;;;6.00;99.90;;;;;;5097352;28;20189;-82
2022/02/07 09:46:34;;;;;;;9.53;2.37;;;5.90;99.90;;;;;;5096234;28;20265;-85
2022/02/07 09:49:03;;;;;;;5.97;2.07;;;6.00;99.90;;;;;;5097285;28;20243;-83
2022/02/07 09:51:30;;;;;;;8.63;2.03;;;5.80;99.90;;;;;;5097129;28;20209;-86
2022/02/07 09:53:58;;;;;;;8.10;1.73;;;6.00;99.90;;;;;;5097715;28;20193;-89
2022/02/07 09:56:26;;;;;;;8.90;2.33;;;6.00;99.90;;;;;;5097245;28;20185;-85
2022/02/07 09:58:55;;;;;;;7.53;2.20;;;6.00;99.90;;;;;;5097410;28;20250;-86
2022/02/07 10:01:28;;;;;;;8.70;2.07;;;6.20;99.90;;;;;;5097147;28;20191;-88
2022/02/07 10:04:02;;;;;;;7.77;2.23;;;6.10;99.90;;;;;;5097662;28;20556;-85
2022/02/07 10:06:44;;;;;;;12.87;2.00;;;6.20;99.90;;;;;;5097881;28;20298;-86
2022/02/07 10:09:38;;;;;;;7.63;2.27;;;6.20;99.90;;;;;;5098138;28;20588;-87
2022/02/07 10:12:27;;;;;;;12.37;2.10;;;6.30;99.90;;;;;;5096896;28;20220;-86
2022/02/07 10:15:10;;;;;;;12.90;3.50;;;6.30;99.90;;;;;;5099710;28;20209;-86
2022/02/07 10:17:49;;;;;;;11.63;2.30;;;6.30;99.90;;;;;;5098707;28;20201;-86
2022/02/07 10:40:25;;;;;;;12.63;2.67;;;6.60;99.90;;;;;;5086700;28;20197;-83
2022/02/07 10:43:20;;;;;;;5.83;1.90;;;6.70;99.90;;;;;;5097002;28;20185;-83
2022/02/07 10:45:57;;;;;;;9.17;2.27;;;6.80;99.90;;;;;;5096105;28;20291;-82
2022/02/07 10:48:32;;;;;;;12.40;2.10;;;6.80;99.90;;;;;;5096107;28;20494;-89
2022/02/07 10:51:11;;;;;;;9.43;2.30;;;6.90;99.90;;;;;;5093417;28;20635;-79
2022/02/07 10:53:39;;;;;;;9.80;2.37;;;7.00;99.90;;;;;;5093967;28;20295;-82
2022/02/07 10:56:08;;;;;;;10.73;2.63;;;7.00;99.90;;;;;;5094756;28;20556;-82
2022/02/07 10:58:36;;;;;;;11.03;2.30;;;6.80;99.90;;;;;;5091540;28;20197;-80
2022/02/07 11:01:10;;;;;;;6.67;2.33;;;6.90;99.90;;;;;;5094926;28;20223;-82
2022/02/07 11:03:42;;;;;;;11.00;2.47;;;7.00;99.90;;;;;;5096503;28;20189;-86
2022/02/07 11:06:12;;;;;;;8.67;1.67;;;7.00;99.90;;;;;;5095917;28;20266;-82
2022/02/07 11:08:49;;;;;;;9.43;2.17;;;7.10;99.90;;;;;;5095162;28;20193;-83
2022/02/07 11:14:29;;;;;;;7.10;1.60;;;7.20;99.90;;;;;;5067876;28;20243;-84
2022/02/07 11:17:12;;;;;;;7.67;2.20;;;7.20;99.90;;;;;;5096710;28;20629;-85
2022/02/07 11:19:51;;;;;;;7.40;1.90;;;7.30;99.90;;;;;;5095934;28;20197;-87
2022/02/07 11:22:45;;;;;;;6.33;1.67;;;7.30;99.90;;;;;;5094991;28;20532;-83
2022/02/07 11:25:26;;;;;;;9.23;2.00;;;7.30;99.90;;;;;;5096022;28;20225;-85
2022/02/07 11:27:58;;;;;;;7.32;1.80;;;7.40;99.90;;;;;;5095528;28;20517;-80
2022/02/07 11:30:43;;;;;;;10.27;1.90;;;7.50;99.90;;;;;;5094656;28;20213;-80
2022/02/07 11:33:49;;;;;;;7.17;1.33;;;7.40;99.90;;;;;;5090795;28;20640;-80
2022/02/07 11:36:24;;;;;;;9.37;3.20;;;7.50;99.90;;;;;;5095582;28;20229;-83
2022/02/07 11:39:04;;;;;;;7.47;1.70;;;7.60;99.90;;;;;;5096582;28;20249;-79
2022/02/07 11:42:01;;;;;;;3.93;1.30;;;7.70;99.90;;;;;;5095917;28;20193;-80
2022/02/07 11:44:51;;;;;;;3.60;1.37;;;7.70;99.90;;;;;;5075047;28;20530;-80
2022/02/07 11:47:26;;;;;;;9.13;1.70;;;7.70;99.90;;;;;;5075464;28;20214;-79
2022/02/07 11:49:55;;;;;;;4.10;1.60;;;7.70;99.90;;;;;;5075826;28;20208;-80
2022/02/07 11:52:27;;;;;;;6.50;1.50;;;7.70;99.90;;;;;;5075560;28;20579;-82
2022/02/07 11:54:55;;;;;;;6.63;1.57;;;7.80;99.90;;;;;;5076494;28;20186;-80
2022/02/07 11:57:34;;;;;;;8.40;1.80;;;7.90;99.90;;;;;;5076001;28;20206;-85
2022/02/07 12:00:13;;;;;;;7.00;1.90;;;7.90;99.90;;;;;;5080897;28;20543;-84
2022/02/07 12:02:48;;;;;;;7.20;2.10;;;7.80;99.90;;;;;;5079416;28;20205;-85
2022/02/07 12:05:19;;;;;;;9.67;2.10;;;7.90;99.90;;;;;;5077359;28;20535;-81
2022/02/07 12:08:03;;;;;;;5.77;1.83;;;8.00;99.90;;;;;;5077415;28;20194;-83
2022/02/07 12:10:41;;;;;;;6.03;1.40;;;7.90;99.90;;;;;;5078043;28;20267;-84
2022/02/07 12:13:33;;;;;;;8.00;1.67;;;8.00;99.90;;;;;;5075450;28;20201;-84
2022/02/07 12:16:05;;;;;;;8.70;1.83;;;7.90;99.90;;;;;;5076039;28;20300;-83
2022/02/07 12:18:36;;;;;;;4.87;1.60;;;7.80;99.90;;;;;;5075510;28;20314;-84
2022/02/07 12:21:19;;;;;;;2.43;1.40;;;7.90;99.90;;;;;;5079526;28;20235;-88
2022/02/07 12:23:52;;;;;;;6.27;1.90;;;7.90;99.90;;;;;;5096274;28;20526;-87
2022/02/07 12:26:20;;;;;;;11.50;1.90;;;7.80;99.90;;;;;;5095265;28;20264;-86
2022/02/07 12:28:56;;;;;;;6.60;1.70;;;7.90;99.90;;;;;;5094963;28;20228;-85
2022/02/07 12:31:27;;;;;;;10.17;2.00;;;7.80;99.90;;;;;;5097172;28;20245;-85
2022/02/07 12:34:03;;;;;;;5.23;1.63;;;7.90;99.90;;;;;;5095839;28;20220;-85
2022/02/07 12:36:32;;;;;;;6.90;2.20;;;8.00;99.90;;;;;;5095137;28;20422;-83
2022/02/07 12:39:01;;;;;;;8.17;1.73;;;8.10;99.90;;;;;;5096041;28;20217;-85
2022/02/07 12:41:34;;;;;;;6.93;1.93;;;8.20;99.90;;;;;;5085436;28;20266;-84
2022/02/07 12:44:01;;;;;;;8.47;1.50;;;8.20;99.90;;;;;;5087696;28;20208;-87
2022/02/07 12:46:32;;;;;;;10.63;1.70;;;8.20;99.90;;;;;;5082427;28;20442;-84
2022/02/07 12:49:02;;;;;;;6.13;1.40;;;8.10;99.90;;;;;;5079559;28;20205;-83
2022/02/07 12:51:33;;;;;;;10.30;2.07;;;8.10;99.90;;;;;;5076875;28;20289;-82
2022/02/07 12:54:00;;;;;;;9.80;1.57;;;8.20;99.90;;;;;;5097064;28;20200;-82
2022/02/07 12:56:29;;;;;;;10.50;2.97;;;8.30;99.90;;;;;;5097760;28;20208;-83
2022/02/07 12:58:57;;;;;;;7.77;1.60;;;8.20;99.90;;;;;;5094444;28;20258;-82
2022/02/07 13:01:27;;;;;;;9.47;1.77;;;8.20;99.90;;;;;;5093491;28;20212;-85
2022/02/07 13:03:58;;;;;;;5.70;1.93;;;8.10;99.90;;;;;;5092353;28;20193;-82
2022/02/07 13:06:31;;;;;;;13.47;2.70;;;8.10;99.90;;;;;;5094013;28;20213;-83
2022/02/07 13:09:01;;;;;;;5.80;2.40;;;8.10;99.90;;;;;;5094285;28;20209;-83
2022/02/07 13:11:32;;;;;;;9.13;2.53;;;8.10;99.90;;;;;;5094979;28;20210;-85
2022/02/07 13:14:00;;;;;;;9.13;1.97;;;8.10;99.90;;;;;;5095333;28;20205;-84
2022/02/07 13:16:30;;;;;;;10.27;2.07;;;8.10;99.90;;;;;;5094874;28;20212;-86
2022/02/07 13:19:09;;;;;;;8.17;1.50;;;8.10;99.90;;;;;;5095408;28;20258;-87
2022/02/07 13:21:42;;;;;;;8.67;2.63;;;8.20;99.90;;;;;;5093842;28;20201;-86
2022/02/07 13:24:11;;;;;;;7.40;2.07;;;8.30;99.90;;;;;;5094794;28;20207;-86
2022/02/07 13:26:38;;;;;;;7.33;2.00;;;8.40;99.90;;;;;;5094515;28;20224;-84
2022/02/07 13:29:08;;;;;;;6.53;1.60;;;8.50;99.90;;;;;;5093919;28;20596;-83
2022/02/07 13:31:38;;;;;;;7.57;1.87;;;8.50;99.90;;;;;;5094801;28;20212;-81
2022/02/07 13:34:21;;;;;;;7.60;2.40;;;8.60;99.90;;;;;;5094899;28;20269;-80
2022/02/07 13:36:52;;;;;;;5.70;1.53;;;8.50;99.90;;;;;;5094757;28;20189;-83
2022/02/07 13:39:19;;;;;;;10.97;1.83;;;8.40;99.90;;;;;;5094424;28;20197;-79
2022/02/07 13:42:03;;;;;;;6.47;1.33;;;8.40;99.90;;;;;;5095479;28;20190;-79
2022/02/07 13:44:30;;;;;;;6.63;1.73;;;8.40;99.90;;;;;;5095853;28;20212;-80
2022/02/07 13:47:02;;;;;;;3.40;1.67;;;8.30;99.90;;;;;;5094160;28;20232;-80
2022/02/07 13:49:29;;;;;;;5.10;1.30;;;8.40;99.90;;;;;;5093857;28;20209;-81
2022/02/07 13:51:57;;;;;;;6.50;1.80;;;8.30;99.90;;;;;;5093505;28;20205;-80
2022/02/07 13:54:32;;;;;;;11.13;1.77;;;8.30;99.90;;;;;;5093449;28;20667;-80
2022/02/07 13:57:01;;;;;;;4.07;1.27;;;8.40;99.90;;;;;;5093453;28;20354;-85
2022/02/07 13:59:36;;;;;;;6.47;1.40;;;8.40;99.90;;;;;;5093189;28;20216;-83
2022/02/07 14:02:03;;;;;;;5.30;1.27;;;8.30;99.90;;;;;;5093764;28;20204;-80
2022/02/07 14:04:31;;;;;;;5.87;1.20;;;8.30;99.90;;;;;;5093123;28;20205;-81
2022/02/07 14:07:08;;;;;;;3.43;1.00;;;8.40;99.90;;;;;;5093193;28;20693;-82
2022/02/07 14:09:37;;;;;;;4.07;1.10;;;8.30;99.90;;;;;;5091642;28;20612;-83
2022/02/07 14:12:05;;;;;;;5.63;1.40;;;8.30;99.90;;;;;;5092969;28;20248;-80
2022/02/07 14:14:32;;;;;;;5.37;1.53;;;8.40;99.90;;;;;;5093781;28;20743;-79
2022/02/07 14:16:59;;;;;;;4.90;1.57;;;8.40;99.90;;;;;;5093854;28;20235;-88
2022/02/07 14:19:39;;;;;;;5.47;1.47;;;8.40;99.90;;;;;;5094189;28;20216;-87
2022/02/07 14:22:08;;;;;;;8.70;1.50;;;8.40;99.90;;;;;;5093432;28;20209;-86
2022/02/07 14:24:35;;;;;;;4.97;1.40;;;8.60;99.90;;;;;;5094188;28;20200;-87
2022/02/07 14:27:04;;;;;;;5.30;1.37;;;8.50;99.90;;;;;;5097773;28;20232;-86
2022/02/07 14:29:31;;;;;;;10.57;1.60;;;8.50;99.90;;;;;;5097970;28;20236;-86
2022/02/07 14:32:00;;;;;;;2.97;1.30;;;8.50;99.90;;;;;;5098449;28;20200;-80
2022/02/07 14:34:27;;;;;;;8.87;2.07;;;8.50;99.90;;;;;;5097374;28;20246;-80
2022/02/07 14:36:54;;;;;;;7.00;2.00;;;8.60;99.90;;;;;;5097959;28;20209;-80
2022/02/07 14:39:22;;;;;;;10.37;2.37;;;8.60;99.90;;;;;;5097760;28;20271;-80
2022/02/07 14:41:52;;;;;;;9.43;3.37;;;8.60;99.90;;;;;;5097373;28;20208;-81
2022/02/07 14:44:26;;;;;;;11.57;3.10;;;8.50;99.90;;;;;;5095943;28;20197;-81